createdAt,value
2018-04-13T00:01:20.623Z,93138.82
2018-04-13T00:03:47.026Z,93136.79
2018-04-13T00:06:13.572Z,93143.54
2018-04-13T00:08:40.128Z,93146.73
2018-04-13T00:11:06.722Z,93154.60
2018-04-13T00:13:33.157Z,93148.28
2018-04-13T00:15:59.639Z,93150.37
2018-04-13T00:18:26.043Z,93146.14
2018-04-13T00:20:52.440Z,93150.08
2018-04-13T00:23:18.877Z,93158.19
2018-04-13T00:25:46.343Z,93158.80
2018-04-13T00:28:12.775Z,93157.59
2018-04-13T00:30:39.173Z,93158.61
2018-04-13T00:33:05.559Z,93167.27
2018-04-13T00:35:32.035Z,93159.42
2018-04-13T00:37:58.458Z,93164.95
2018-04-13T00:40:24.864Z,93168.50
2018-04-13T00:42:51.280Z,93168.06
2018-04-13T00:45:17.871Z,93167.23
2018-04-13T00:47:44.345Z,93163.33
2018-04-13T00:50:10.757Z,93168.66
2018-04-13T00:52:37.203Z,93168.66
2018-04-13T00:55:03.719Z,93165.22
2018-04-13T00:57:30.240Z,93156.88
2018-04-13T00:59:56.711Z,93146.31
2018-04-13T01:02:23.115Z,93152.66
2018-04-13T01:04:49.639Z,93149.33
2018-04-13T01:07:16.027Z,93150.84
2018-04-13T01:09:42.421Z,93155.22
2018-04-13T01:12:08.906Z,93150.83
2018-04-13T01:14:35.363Z,93153.44
2018-04-13T01:17:01.836Z,93161.31
2018-04-13T01:19:28.243Z,93155.74
2018-04-13T01:21:54.742Z,93165.52
2018-04-13T01:24:21.194Z,93156.36
2018-04-13T01:26:47.725Z,93157.13
2018-04-13T01:29:14.173Z,93167.63
2018-04-13T01:31:40.593Z,93164.11
2018-04-13T01:34:07.009Z,93154.20
2018-04-13T01:36:33.490Z,93153.63
2018-04-13T01:38:59.903Z,93161.48
2018-04-13T01:41:26.389Z,93164.28
2018-04-13T01:43:52.811Z,93161.94
2018-04-13T01:46:19.324Z,93162.52
2018-04-13T01:48:45.718Z,93147.35
2018-04-13T01:51:12.143Z,93142.05
2018-04-13T01:53:38.572Z,93140.83
2018-04-13T01:56:05.034Z,93148.41
2018-04-13T01:58:31.578Z,93159.73
2018-04-13T02:00:57.986Z,93157.59
2018-04-13T02:03:24.367Z,93159.30
2018-04-13T02:05:50.959Z,93165.03
2018-04-13T02:08:17.374Z,93167.56
2018-04-13T02:10:43.774Z,93164.24
2018-04-13T02:13:10.228Z,93163.53
2018-04-13T02:15:36.674Z,93168.94
2018-04-13T02:18:03.078Z,93176.93
2018-04-13T02:20:29.543Z,93174.52
2018-04-13T02:22:55.879Z,93170.63
2018-04-13T02:25:22.270Z,93183.06
2018-04-13T02:27:48.758Z,93182.53
2018-04-13T02:30:15.091Z,93174.06
2018-04-13T02:32:41.421Z,93183.61
2018-04-13T02:35:07.798Z,93180.55
2018-04-13T02:37:34.135Z,93187.67
2018-04-13T02:40:00.495Z,93180.97
2018-04-13T02:42:26.925Z,93183.94
2018-04-13T02:44:54.420Z,93196.28
2018-04-13T02:47:20.727Z,93199.45
2018-04-13T02:49:47.112Z,93183.44
2018-04-13T02:52:13.484Z,93189.61
2018-04-13T02:54:39.803Z,93190.20
2018-04-13T02:57:07.243Z,93179.66
2018-04-13T02:59:33.552Z,93176.59
2018-04-13T03:01:59.891Z,93178.43
2018-04-13T03:04:26.282Z,93170.52
2018-04-13T03:06:52.653Z,93177.44
2018-04-13T03:09:19.010Z,93180.25
2018-04-13T03:11:45.374Z,93187.25
2018-04-13T03:14:11.667Z,93192.53
2018-04-13T03:16:39.217Z,93201.24
2018-04-13T03:19:05.552Z,93200.27
2018-04-13T03:21:32.033Z,93198.58
2018-04-13T03:23:58.355Z,93192.09
2018-04-13T03:26:24.753Z,93190.31
2018-04-13T03:28:51.120Z,93194.72
2018-04-13T03:31:17.483Z,93189.33
2018-04-13T03:33:43.863Z,93195.53
2018-04-13T03:36:10.326Z,93200.06
2018-04-13T03:38:36.736Z,93196.05
2018-04-13T03:41:03.111Z,93190.36
2018-04-13T03:43:29.537Z,93192.63
2018-04-13T03:45:56.014Z,93188.66
2018-04-13T03:48:22.349Z,93188.56
2018-04-13T03:50:48.778Z,93190.52
2018-04-13T03:53:15.089Z,93197.63
2018-04-13T03:55:41.538Z,93202.59
2018-04-13T03:58:07.912Z,93193.95
2018-04-13T04:00:34.338Z,93194.16
2018-04-13T04:03:00.735Z,93189.06
2018-04-13T04:05:27.216Z,93184.40
2018-04-13T04:07:53.524Z,93186.13
2018-04-13T04:10:19.871Z,93193.98
2018-04-13T04:12:46.373Z,93192.52
2018-04-13T04:15:12.900Z,93202.03
2018-04-13T04:17:39.264Z,93203.72
2018-04-13T04:20:18.659Z,93210.36
2018-04-13T04:22:57.260Z,93221.78
2018-04-13T04:25:35.956Z,93221.69
2018-04-13T04:28:03.277Z,93223.48
2018-04-13T04:30:29.722Z,93228.49
2018-04-13T04:32:56.084Z,93233.83
2018-04-13T04:35:22.497Z,93234.40
2018-04-13T04:37:48.926Z,93236.75
2018-04-13T04:40:15.370Z,93230.23
2018-04-13T04:42:41.672Z,93237.42
2018-04-13T04:45:08.017Z,93235.81
2018-04-13T04:47:34.509Z,93247.95
2018-04-13T04:50:00.873Z,93251.15
2018-04-13T04:52:27.289Z,93254.05
2018-04-13T04:54:53.745Z,93256.52
2018-04-13T04:57:20.232Z,93256.06
2018-04-13T04:59:46.616Z,93266.58
2018-04-13T05:02:13.029Z,93273.50
2018-04-13T05:04:39.445Z,93269.14
2018-04-13T05:07:05.835Z,93282.00
2018-04-13T05:09:32.240Z,93279.34
2018-04-13T05:11:58.586Z,93280.88
2018-04-13T05:14:24.950Z,93278.64
2018-04-13T05:16:51.405Z,93274.57
2018-04-13T05:19:17.808Z,93276.70
2018-04-13T05:21:44.142Z,93287.48
2018-04-13T05:24:10.592Z,93295.13
2018-04-13T05:26:37.100Z,93290.25
2018-04-13T05:29:03.496Z,93295.19
2018-04-13T05:31:29.856Z,93296.25
2018-04-13T05:33:56.163Z,93301.48
2018-04-13T05:36:22.616Z,93294.56
2018-04-13T05:38:48.983Z,93301.14
2018-04-13T05:41:15.472Z,93303.32
2018-04-13T05:43:41.806Z,93312.16
2018-04-13T05:46:08.266Z,93314.84
2018-04-13T05:48:34.601Z,93315.55
2018-04-13T05:51:01.086Z,93325.35
2018-04-13T05:53:27.618Z,93326.63
2018-04-13T05:55:54.071Z,93327.28
2018-04-13T05:58:20.484Z,93326.52
2018-04-13T06:00:46.878Z,93327.69
2018-04-13T06:03:13.252Z,93338.52
2018-04-13T06:05:39.741Z,93334.43
2018-04-13T06:08:06.109Z,93336.42
2018-04-13T06:10:32.465Z,93334.00
2018-04-13T06:12:58.848Z,93339.84
2018-04-13T06:15:25.304Z,93340.05
2018-04-13T06:17:51.652Z,93338.57
2018-04-13T06:20:18.017Z,93341.09
2018-04-13T06:22:44.400Z,93348.28
2018-04-13T06:25:10.779Z,93340.51
2018-04-13T06:27:37.090Z,93339.45
2018-04-13T06:30:03.518Z,93351.92
2018-04-13T06:32:29.876Z,93357.22
2018-04-13T06:34:56.214Z,93363.77
2018-04-13T06:37:22.692Z,93358.39
2018-04-13T06:39:49.128Z,93367.28
2018-04-13T06:42:15.452Z,93367.96
2018-04-13T06:44:41.820Z,93362.02
2018-04-13T06:47:08.266Z,93371.86
2018-04-13T06:49:34.712Z,93369.87
2018-04-13T06:52:01.129Z,93372.67
2018-04-13T06:54:27.501Z,93382.84
2018-04-13T06:56:54.035Z,93379.77
2018-04-13T06:59:20.586Z,93383.58
2018-04-13T07:01:47.191Z,93377.81
2018-04-13T07:04:13.775Z,93369.68
2018-04-13T07:06:40.188Z,93372.31
2018-04-13T07:09:06.517Z,93372.34
2018-04-13T07:11:32.819Z,93368.72
2018-04-13T07:13:59.214Z,93366.80
2018-04-13T07:16:25.710Z,93369.34
2018-04-13T07:18:52.058Z,93360.55
2018-04-13T07:21:18.749Z,93365.81
2018-04-13T07:23:45.088Z,93364.91
2018-04-13T07:26:11.595Z,93364.59
2018-04-13T07:28:37.983Z,93369.39
2018-04-13T07:31:04.341Z,93370.55
2018-04-13T07:33:30.682Z,93372.91
2018-04-13T07:35:57.217Z,93373.87
2018-04-13T07:38:23.583Z,93369.09
2018-04-13T07:40:49.975Z,93367.47
2018-04-13T07:43:16.471Z,93374.98
2018-04-13T07:45:42.841Z,93373.08
2018-04-13T07:48:09.155Z,93362.35
2018-04-13T07:50:35.583Z,93371.28
2018-04-13T07:53:01.986Z,93375.00
2018-04-13T07:55:28.407Z,93373.35
2018-04-13T07:57:54.771Z,93377.41
2018-04-13T08:00:21.439Z,93373.51
2018-04-13T08:02:47.946Z,93381.38
2018-04-13T08:05:14.137Z,93377.95
2018-04-13T08:07:40.588Z,93379.10
2018-04-13T08:10:06.955Z,93381.80
2018-04-13T08:12:33.669Z,93380.11
2018-04-13T08:15:00.729Z,93373.80
2018-04-13T08:17:27.094Z,93380.34
2018-04-13T08:19:53.643Z,93375.00
2018-04-13T08:22:19.985Z,93377.55
2018-04-13T08:24:46.307Z,93373.55
2018-04-13T08:27:12.823Z,93372.78
2018-04-13T08:29:39.281Z,93377.25
2018-04-13T08:32:05.567Z,93370.59
2018-04-13T08:34:31.926Z,93377.95
2018-04-13T08:36:58.276Z,93378.86
2018-04-13T08:39:24.637Z,93366.91
2018-04-13T08:41:51.016Z,93373.27
2018-04-13T08:44:17.385Z,93371.03
2018-04-13T08:46:43.937Z,93379.09
2018-04-13T08:49:10.465Z,93375.73
2018-04-13T08:51:36.663Z,93374.06
2018-04-13T08:54:03.040Z,93372.41
2018-04-13T08:56:29.532Z,93376.01
2018-04-13T08:58:55.863Z,93373.47
2018-04-13T09:01:22.245Z,93368.53
2018-04-13T09:03:48.667Z,93368.43
2018-04-13T09:06:15.147Z,93367.74
2018-04-13T09:08:41.513Z,93361.73
2018-04-13T09:11:07.948Z,93366.16
2018-04-13T09:13:34.416Z,93356.64
2018-04-13T09:16:00.966Z,93357.86
2018-04-13T09:18:27.371Z,93358.98
2018-04-13T09:20:53.788Z,93350.33
2018-04-13T09:23:20.169Z,93342.94
2018-04-13T09:25:46.610Z,93342.86
2018-04-13T09:28:12.963Z,93338.22
2018-04-13T09:30:39.320Z,93345.86
2018-04-13T09:33:05.689Z,93346.94
2018-04-13T09:35:32.069Z,93338.26
2018-04-13T09:37:58.525Z,93330.54
2018-04-13T09:40:25.206Z,93325.28
2018-04-13T09:42:51.630Z,93334.91
2018-04-13T09:45:18.032Z,93330.77
2018-04-13T09:47:44.462Z,93331.19
2018-04-13T09:50:10.837Z,93329.19
2018-04-13T09:52:37.193Z,93330.19
2018-04-13T09:55:03.690Z,93315.98
2018-04-13T09:57:30.218Z,93320.05
2018-04-13T09:59:56.621Z,93317.64
2018-04-13T10:02:25.101Z,93324.30
2018-04-13T10:04:55.482Z,93327.30
2018-04-13T10:07:22.776Z,93322.86
2018-04-13T10:09:49.268Z,93326.58
2018-04-13T10:12:15.662Z,93329.24
2018-04-13T10:14:42.334Z,93326.63
2018-04-13T10:17:09.003Z,93318.91
2018-04-13T10:19:35.366Z,93328.41
2018-04-13T10:22:01.720Z,93319.45
2018-04-13T10:24:28.095Z,93320.97
2018-04-13T10:26:54.559Z,93318.17
2018-04-13T10:29:20.962Z,93314.31
2018-04-13T10:31:47.359Z,93316.52
2018-04-13T10:34:13.869Z,93317.43
2018-04-13T10:36:40.388Z,93311.97
2018-04-13T10:39:06.760Z,93311.23
2018-04-13T10:41:33.127Z,93310.44
2018-04-13T10:43:59.487Z,93309.37
2018-04-13T10:46:26.065Z,93289.41
2018-04-13T10:48:52.565Z,93308.52
2018-04-13T10:51:18.916Z,93303.48
2018-04-13T10:53:45.383Z,93303.80
2018-04-13T10:56:11.805Z,93303.63
2018-04-13T10:58:38.223Z,93294.56
2018-04-13T11:01:04.603Z,93297.50
2018-04-13T11:03:31.357Z,93299.06
2018-04-13T11:05:57.841Z,93298.48
2018-04-13T11:08:24.243Z,93296.78
2018-04-13T11:10:50.624Z,93296.58
2018-04-13T11:13:16.987Z,93298.02
2018-04-13T11:15:43.619Z,93298.93
2018-04-13T11:18:09.972Z,93290.22
2018-04-13T11:20:36.337Z,93293.72
2018-04-13T11:23:02.772Z,93287.31
2018-04-13T11:25:29.107Z,93285.41
2018-04-13T11:27:55.579Z,93286.11
2018-04-13T11:30:22.014Z,93285.75
2018-04-13T11:32:48.612Z,93278.79
2018-04-13T11:35:14.976Z,93280.70
2018-04-13T11:37:41.414Z,93286.03
2018-04-13T11:40:07.774Z,93286.37
2018-04-13T11:42:34.148Z,93293.44
2018-04-13T11:45:00.520Z,93280.54
2018-04-13T11:47:27.012Z,93279.45
2018-04-13T11:49:53.688Z,93276.16
2018-04-13T11:52:20.120Z,93282.02
2018-04-13T11:54:46.628Z,93280.17
2018-04-13T11:57:13.116Z,93273.52
2018-04-13T11:59:40.166Z,93271.80
2018-04-13T12:02:06.670Z,93262.95
2018-04-13T12:04:33.083Z,93262.57
2018-04-13T12:06:59.743Z,93254.89
2018-04-13T12:09:26.172Z,93261.47
2018-04-13T12:11:52.560Z,93255.59
2018-04-13T12:14:19.000Z,93270.36
2018-04-13T12:16:45.427Z,93262.08
2018-04-13T12:19:12.427Z,93253.44
2018-04-13T12:21:39.183Z,93254.14
2018-04-13T12:24:05.924Z,93256.33
2018-04-13T12:26:32.566Z,93258.50
2018-04-13T12:28:59.349Z,93247.91
2018-04-13T12:31:26.415Z,93247.11
2018-04-13T12:33:52.845Z,93241.64
2018-04-13T12:36:19.506Z,93237.56
2018-04-13T12:38:45.957Z,93232.20
2018-04-13T12:41:12.328Z,93235.59
2018-04-13T12:43:38.748Z,93229.30
2018-04-13T12:46:05.182Z,93227.47
2018-04-13T12:48:31.511Z,93218.86
2018-04-13T12:50:58.031Z,93225.05
2018-04-13T12:53:24.401Z,93215.25
2018-04-13T12:55:51.197Z,93220.81
2018-04-13T12:58:17.803Z,93222.36
2018-04-13T13:00:44.287Z,93221.05
2018-04-13T13:03:10.651Z,93218.75
2018-04-13T13:05:37.107Z,93218.97
2018-04-13T13:08:03.532Z,93210.87
2018-04-13T13:10:30.042Z,93218.77
2018-04-13T13:12:56.459Z,93217.43
2018-04-13T13:15:22.839Z,93219.58
2018-04-13T13:17:49.295Z,93225.27
2018-04-13T13:20:15.914Z,93218.86
2018-04-13T13:22:42.645Z,93221.23
2018-04-13T13:25:09.228Z,93214.20
2018-04-13T13:27:35.869Z,93209.16
2018-04-13T13:30:02.413Z,93210.95
2018-04-13T13:32:29.083Z,93220.00
2018-04-13T13:34:55.843Z,93215.70
2018-04-13T13:37:22.360Z,93219.53
2018-04-13T13:39:48.972Z,93210.47
2018-04-13T13:42:16.059Z,93212.06
2018-04-13T13:44:42.481Z,93215.32
2018-04-13T13:47:09.010Z,93219.80
2018-04-13T13:49:35.556Z,93223.23
2018-04-13T13:52:02.132Z,93219.93
2018-04-13T13:54:28.561Z,93225.45
2018-04-13T13:56:55.511Z,93220.36
2018-04-13T13:59:21.977Z,93222.23
2018-04-13T14:01:48.374Z,93228.55
2018-04-13T14:04:15.771Z,93223.20
2018-04-13T14:06:42.222Z,93220.58
2018-04-13T14:09:08.650Z,93223.89
2018-04-13T14:11:35.350Z,93229.41
2018-04-13T14:14:01.856Z,93225.19
2018-04-13T14:16:28.456Z,93231.70
2018-04-13T14:18:54.946Z,93234.22
2018-04-13T14:21:21.437Z,93227.73
2018-04-13T14:23:47.947Z,93226.45
2018-04-13T14:26:14.625Z,93231.48
2018-04-13T14:28:41.272Z,93233.80
2018-04-13T14:31:08.215Z,93237.64
2018-04-13T14:33:34.816Z,93235.91
2018-04-13T14:36:01.416Z,93239.97
2018-04-13T14:38:28.012Z,93239.61
2018-04-13T14:40:54.616Z,93241.07
2018-04-13T14:43:21.183Z,93243.47
2018-04-13T14:45:47.805Z,93242.73
2018-04-13T14:48:14.482Z,93242.46
2018-04-13T14:50:41.174Z,93239.87
2018-04-13T14:53:07.903Z,93245.09
2018-04-13T14:55:34.719Z,93244.58
2018-04-13T14:58:01.491Z,93245.13
2018-04-13T15:00:28.060Z,93244.56
2018-04-13T15:02:54.666Z,93252.75
2018-04-13T15:05:21.409Z,93248.68
2018-04-13T15:07:48.079Z,93251.77
2018-04-13T15:10:14.873Z,93254.82
2018-04-13T15:12:41.600Z,93253.70
2018-04-13T15:15:08.360Z,93257.47
2018-04-13T15:17:35.214Z,93257.91
2018-04-13T15:20:01.935Z,93247.50
2018-04-13T15:22:28.674Z,93252.25
2018-04-13T15:24:55.656Z,93255.52
2018-04-13T15:27:22.124Z,93254.39
2018-04-13T15:29:48.606Z,93251.67
2018-04-13T15:32:15.140Z,93254.64
2018-04-13T15:34:41.487Z,93258.69
2018-04-13T15:37:07.911Z,93254.14
2018-04-13T15:39:34.279Z,93258.28
2018-04-13T15:42:00.655Z,93252.44
2018-04-13T15:44:27.024Z,93256.02
2018-04-13T15:46:54.361Z,93265.51
2018-04-13T15:49:21.856Z,93268.34
2018-04-13T15:51:48.867Z,93268.34
2018-04-13T15:54:15.604Z,93286.56
2018-04-13T15:56:42.163Z,93295.51
2018-04-13T15:59:08.590Z,93300.39
2018-04-13T16:01:35.024Z,93309.37
2018-04-13T16:04:01.711Z,93305.50
2018-04-13T16:06:28.198Z,93305.12
2018-04-13T16:08:54.600Z,93307.90
2018-04-13T16:11:21.057Z,93310.45
2018-04-13T16:13:47.677Z,93319.59
2018-04-13T16:16:14.206Z,93322.11
2018-04-13T16:18:40.625Z,93321.55
2018-04-13T16:21:07.365Z,93314.70
2018-04-13T16:23:33.966Z,93314.70
2018-04-13T16:26:00.450Z,93320.68
2018-04-13T16:28:26.889Z,93314.17
2018-04-13T16:30:53.608Z,93314.55
2018-04-13T16:33:20.184Z,93320.89
2018-04-13T16:35:47.115Z,93317.75
2018-04-13T16:38:14.347Z,93324.15
2018-04-13T16:40:42.021Z,93322.77
2018-04-13T16:43:08.793Z,93325.80
2018-04-13T16:45:38.176Z,93329.84
2018-04-13T16:48:06.562Z,93322.91
2018-04-13T16:50:35.369Z,93319.19
2018-04-13T16:53:02.500Z,93321.27
2018-04-13T16:55:29.162Z,93323.87
2018-04-13T16:57:57.329Z,93331.50
2018-04-13T17:00:23.723Z,93327.16
2018-04-13T17:02:51.484Z,93323.05
2018-04-13T17:05:18.208Z,93330.16
2018-04-13T17:07:44.993Z,93336.23
2018-04-13T17:10:13.271Z,93344.06
2018-04-13T17:12:40.115Z,93343.41
2018-04-13T17:15:06.752Z,93345.95
2018-04-13T17:17:33.856Z,93353.41
2018-04-13T17:20:00.837Z,93351.84
2018-04-13T17:22:27.981Z,93358.33
2018-04-13T17:24:54.448Z,93359.39
2018-04-13T17:27:21.558Z,93357.89
2018-04-13T17:29:48.405Z,93361.05
2018-04-13T17:32:15.031Z,93367.84
2018-04-13T17:34:41.579Z,93372.09
2018-04-13T17:37:08.330Z,93379.43
2018-04-13T17:39:34.965Z,93380.95
2018-04-13T17:42:01.675Z,93381.31
2018-04-13T17:44:28.077Z,93380.25
2018-04-13T17:46:54.955Z,93388.47
2018-04-13T17:49:21.638Z,93396.41
2018-04-13T17:51:48.643Z,93397.73
2018-04-13T17:54:16.056Z,93400.96
2018-04-13T17:56:43.099Z,93397.77
2018-04-13T17:59:10.843Z,93409.60
2018-04-13T18:01:38.134Z,93407.22
2018-04-13T18:04:05.080Z,93412.83
2018-04-13T18:06:33.245Z,93415.88
2018-04-13T18:09:00.060Z,93418.33
2018-04-13T18:11:27.192Z,93418.54
2018-04-13T18:13:54.154Z,93425.84
2018-04-13T18:16:22.146Z,93422.17
2018-04-13T18:18:50.671Z,93424.80
2018-04-13T18:21:18.569Z,93424.56
2018-04-13T18:23:46.470Z,93426.79
2018-04-13T18:26:12.993Z,93441.41
2018-04-13T18:28:39.554Z,93441.36
2018-04-13T18:31:06.018Z,93440.17
2018-04-13T18:33:33.240Z,93450.12
2018-04-13T18:35:59.967Z,93449.70
2018-04-13T18:38:26.963Z,93457.16
2018-04-13T18:40:55.846Z,93458.03
2018-04-13T18:43:22.381Z,93452.38
2018-04-13T18:45:48.985Z,93460.38
2018-04-13T18:48:16.569Z,93464.53
2018-04-13T18:50:43.280Z,93464.77
2018-04-13T18:53:11.610Z,93460.98
2018-04-13T18:55:38.266Z,93469.73
2018-04-13T18:58:05.154Z,93467.78
2018-04-13T19:00:31.888Z,93465.79
2018-04-13T19:02:59.591Z,93472.45
2018-04-13T19:05:27.120Z,93471.24
2018-04-13T19:07:55.147Z,93481.02
2018-04-13T19:10:23.191Z,93481.83
2018-04-13T19:12:50.973Z,93486.15
2018-04-13T19:15:18.391Z,93487.91
2018-04-13T19:17:46.236Z,93496.97
2018-04-13T19:20:13.324Z,93497.49
2018-04-13T19:22:41.926Z,93500.91
2018-04-13T19:25:11.138Z,93501.86
2018-04-13T19:27:39.116Z,93506.63
2018-04-13T19:30:07.438Z,93509.77
2018-04-13T19:32:34.436Z,93520.23
2018-04-13T19:35:01.785Z,93524.98
2018-04-13T19:37:28.374Z,93525.41
2018-04-13T19:39:55.368Z,93529.77
2018-04-13T19:42:21.979Z,93524.17
2018-04-13T19:44:48.591Z,93525.38
2018-04-13T19:47:16.502Z,93527.80
2018-04-13T19:49:43.485Z,93532.44
2018-04-13T19:52:10.125Z,93529.52
2018-04-13T19:54:36.681Z,93531.50
2018-04-13T19:57:03.203Z,93532.80
2018-04-13T19:59:29.952Z,93532.43
2018-04-13T20:01:56.507Z,93541.12
2018-04-13T20:04:24.281Z,93537.79
2018-04-13T20:06:51.958Z,93538.51
2018-04-13T20:09:19.630Z,93546.64
2018-04-13T20:11:46.035Z,93550.19
2018-04-13T20:14:23.849Z,93557.73
2018-04-13T20:16:50.569Z,93554.10
2018-04-13T20:19:17.317Z,93554.33
2018-04-13T20:21:44.312Z,93553.89
2018-04-13T20:24:10.732Z,93560.11
2018-04-13T20:26:37.447Z,93558.16
2018-04-13T20:29:04.640Z,93554.43
2018-04-13T20:31:31.541Z,93560.98
2018-04-13T20:33:57.966Z,93560.73
2018-04-13T20:36:24.375Z,93567.96
2018-04-13T20:38:51.050Z,93571.68
2018-04-13T20:41:18.052Z,93575.01
2018-04-13T20:43:44.590Z,93572.86
2018-04-13T20:46:11.125Z,93574.75
2018-04-13T20:48:37.517Z,93580.28
2018-04-13T20:51:04.121Z,93585.70
2018-04-13T20:53:30.568Z,93588.49
2018-04-13T20:55:58.054Z,93581.48
2018-04-13T20:58:24.691Z,93586.16
2018-04-13T21:00:51.743Z,93589.12
2018-04-13T21:03:18.807Z,93584.28
2018-04-13T21:05:45.317Z,93584.91
2018-04-13T21:08:11.748Z,93591.87
2018-04-13T21:10:38.095Z,93588.55
2018-04-13T21:13:04.490Z,93586.29
2018-04-13T21:15:31.017Z,93591.30
2018-04-13T21:17:57.479Z,93599.30
2018-04-13T21:20:23.967Z,93599.71
2018-04-13T21:22:50.381Z,93599.85
2018-04-13T21:25:16.748Z,93601.02
2018-04-13T21:27:43.133Z,93597.23
2018-04-13T21:30:09.575Z,93597.20
2018-04-13T21:32:35.934Z,93600.97
2018-04-13T21:35:02.356Z,93605.98
2018-04-13T21:37:28.893Z,93608.52
2018-04-13T21:39:55.231Z,93604.05
2018-04-13T21:42:21.590Z,93607.62
2018-04-13T21:44:47.999Z,93610.88
2018-04-13T21:47:14.565Z,93612.52
2018-04-13T21:49:40.904Z,93611.42
2018-04-13T21:52:07.360Z,93614.44
2018-04-13T21:54:33.722Z,93620.11
2018-04-13T21:57:00.169Z,93621.95
2018-04-13T21:59:26.533Z,93629.16
2018-04-13T22:01:52.852Z,93631.18
2018-04-13T22:04:19.270Z,93634.43
2018-04-13T22:06:45.643Z,93640.73
2018-04-13T22:09:11.997Z,93647.58
2018-04-13T22:11:38.395Z,93644.13
2018-04-13T22:14:17.085Z,93647.41
2018-04-13T22:16:43.389Z,93646.74
2018-04-13T22:19:09.863Z,93650.50
2018-04-13T22:21:36.287Z,93650.33
2018-04-13T22:24:02.626Z,93655.09
2018-04-13T22:26:29.024Z,93650.91
2018-04-13T22:28:55.520Z,93652.31
2018-04-13T22:31:21.851Z,93654.05
2018-04-13T22:33:48.262Z,93654.25
2018-04-13T22:36:14.685Z,93655.40
2018-04-13T22:38:41.066Z,93657.53
2018-04-13T22:41:07.432Z,93660.39
2018-04-13T22:43:33.840Z,93669.30
2018-04-13T22:46:00.189Z,93670.19
2018-04-13T22:48:26.596Z,93663.61
2018-04-13T22:50:52.957Z,93674.76
2018-04-13T22:53:19.306Z,93672.73
2018-04-13T22:55:45.732Z,93680.06
2018-04-13T22:58:12.189Z,93677.23
2018-04-13T23:00:38.570Z,93678.34
2018-04-13T23:03:04.963Z,93687.52
2018-04-13T23:05:31.340Z,93684.97
2018-04-13T23:07:57.772Z,93689.32
2018-04-13T23:10:24.694Z,93683.03
2018-04-13T23:12:51.118Z,93687.22
2018-04-13T23:15:17.492Z,93686.88
2018-04-13T23:17:43.884Z,93684.76
2018-04-13T23:20:10.292Z,93693.33
2018-04-13T23:22:38.273Z,93694.94
2018-04-13T23:25:04.919Z,93695.98
2018-04-13T23:27:31.369Z,93700.14
2018-04-13T23:29:57.793Z,93695.58
2018-04-13T23:32:24.177Z,93699.11
2018-04-13T23:34:50.634Z,93704.61
2018-04-13T23:37:17.056Z,93701.59
2018-04-13T23:39:43.405Z,93699.89
2018-04-13T23:42:09.726Z,93698.69
2018-04-13T23:44:36.118Z,93704.87
2018-04-13T23:47:02.469Z,93707.55
2018-04-13T23:49:28.895Z,93709.48
2018-04-13T23:51:55.225Z,93702.98
2018-04-13T23:54:21.697Z,93706.08
2018-04-13T23:56:48.025Z,93704.84
2018-04-13T23:59:14.490Z,93709.98
